Buoy 46623

sailwx.info

Track history (hours):
 
Tides and Currents Weather Stations Pressure Air Temp Water Temp Dewpoint Dewpoint Depression Visibility Wind Speed Wind Dir Waves Ship Positions

Drifting buoy 46623

Last reported at 2017-Nov-18 13:00 UTC. Time now 2017-Nov-18 15:31 UTC.
Position N 18°08' W 150°28'.

Date/timePositionNaut miles runAvg speedWind from/ knotsBaromVisibWave heightAir tempDewpointWater temp
2017-Nov-18 13:00N 18°08' W 150°28'1 0.8
2017-Nov-18 12:00N 18°07' W 150°27'0 0.0
2017-Nov-18 08:00N 18°07' W 150°27'1 0.8
2017-Nov-18 07:00N 18°07' W 150°26'0 0.0
2017-Nov-18 06:00N 18°07' W 150°26'1 0.6
2017-Nov-18 05:00N 18°07' W 150°26'1 1.3
2017-Nov-18 04:00N 18°07' W 150°25'1 0.6
2017-Nov-18 03:00N 18°07' W 150°25'1 0.6
2017-Nov-18 02:00N 18°07' W 150°24'0 0.0
2017-Nov-18 01:00N 18°07' W 150°24'1 0.8
2017-Nov-18 00:00N 18°06' W 150°23'0 0.0
2017-Nov-17 23:00N 18°06' W 150°23'3 1.0
2017-Nov-17 20:00N 18°07' W 150°20'1 0.8
2017-Nov-17 19:00N 18°07' W 150°20'0 0.0
2017-Nov-17 18:00N 18°07' W 150°20'1 0.6
2017-Nov-17 17:00N 18°07' W 150°19'2 1.7
2017-Nov-17 16:00N 18°07' W 150°17'0 0.0
2017-Nov-17 15:00N 18°07' W 150°17'1 1.2
2017-Nov-17 14:00N 18°08' W 150°17'2 2.3
2017-Nov-17 13:00N 18°08' W 150°15'1 0.6
2017-Nov-17 12:00N 18°08' W 150°16'1 0.1
2017-Nov-17 08:00N 18°08' W 150°15'1 0.8
2017-Nov-17 07:00N 18°08' W 150°14'1 0.6
2017-Nov-17 06:00N 18°08' W 150°15'1 1.3
2017-Nov-17 05:00N 18°07' W 150°14'1 1.1
2017-Nov-17 04:00N 18°07' W 150°13'2 0.9
2017-Nov-17 02:00N 18°07' W 150°11'0 0.0
2017-Nov-17 01:00N 18°07' W 150°11'2 1.8
2017-Nov-17 00:00N 18°08' W 150°09'0 0.0
2017-Nov-16 20:00N 18°08' W 150°09'1 1.1
2017-Nov-16 19:00N 18°08' W 150°08'0 0.0
2017-Nov-16 18:00N 18°08' W 150°08'1 0.8
2017-Nov-16 17:00N 18°07' W 150°08'3 1.3
2017-Nov-16 15:00N 18°08' W 150°06'1 0.8
2017-Nov-16 14:00N 18°09' W 150°05'2 1.7
2017-Nov-16 13:00N 18°09' W 150°04'0 0.0
2017-Nov-16 08:00N 18°09' W 150°04'1 0.6
2017-Nov-16 07:00N 18°09' W 150°03'1 0.6
2017-Nov-16 06:00N 18°09' W 150°02'0 0.0
2017-Nov-16 05:00N 18°09' W 150°02'1 0.8
2017-Nov-16 04:00N 18°10' W 150°02'1 0.6
2017-Nov-16 03:00N 18°10' W 150°01'1 1.3
2017-Nov-16 02:00N 18°10' W 150°00'0 0.0
2017-Nov-16 00:00N 18°10' W 150°00'2 0.4
2017-Nov-15 18:00N 18°11' W 149°58'1 0.6
2017-Nov-15 17:00N 18°11' W 149°58'0 0.0
2017-Nov-15 16:00N 18°11' W 149°58'1 1.2
2017-Nov-15 15:00N 18°13' W 149°58'0 0.0
2017-Nov-15 13:00N 18°13' W 149°58'1 0.2
2017-Nov-15 08:00N 18°13' W 149°57'1 0.6
2017-Nov-15 07:00N 18°13' W 149°57'1 0.6
2017-Nov-15 06:00N 18°13' W 149°57'1 0.6
2017-Nov-15 05:00N 18°13' W 149°57'0 0.0
2017-Nov-15 04:00N 18°13' W 149°57'1 1.3
2017-Nov-15 03:00N 18°13' W 149°56'0 0.0
2017-Nov-15 02:00N 18°13' W 149°56'0 0.0
2017-Nov-15 01:00N 18°13' W 149°56'1 0.6
2017-Nov-15 00:00N 18°14' W 149°56'0 0.0
2017-Nov-14 20:00N 18°14' W 149°56'1 0.6
2017-Nov-14 19:00N 18°14' W 149°56'1 0.8
2017-Nov-14 18:00N 18°14' W 149°55'1 0.3
2017-Nov-14 16:00N 18°14' W 149°55'0 0.0
2017-Nov-14 15:00N 18°14' W 149°55'1 1.1
2017-Nov-14 14:00N 18°14' W 149°56'2 1.7
2017-Nov-14 13:00N 18°14' W 149°54'0 0.0
2017-Nov-14 08:00N 18°14' W 149°54'1 1.1
2017-Nov-14 07:00N 18°14' W 149°53'0 0.0
2017-Nov-14 06:00N 18°14' W 149°53'1 0.8
2017-Nov-14 05:00N 18°14' W 149°53'1 1.1
2017-Nov-14 04:00N 18°14' W 149°52'1 0.8
2017-Nov-14 03:00N 18°15' W 149°52'0 0.0
2017-Nov-14 02:00N 18°15' W 149°52'2 2.1
2017-Nov-14 01:00N 18°17' W 149°50'2 2.1
2017-Nov-14 00:00N 18°15' W 149°52'2 0.5
2017-Nov-13 20:00N 18°17' W 149°50'1 0.6
2017-Nov-13 19:00N 18°17' W 149°50'0 0.0
2017-Nov-13 18:00N 18°17' W 149°50'0 0.0
2017-Nov-13 17:00N 18°17' W 149°50'1 0.6
2017-Nov-13 16:00N 18°17' W 149°51'1 0.6
2017-Nov-13 15:00N 18°18' W 149°51'1 0.6
2017-Nov-13 14:00N 18°18' W 149°52'1 0.8
2017-Nov-13 13:00N 18°17' W 149°51'0 0.0
2017-Nov-13 08:00N 18°17' W 149°51'0 0.0
2017-Nov-13 07:00N 18°17' W 149°51'1 0.8
2017-Nov-13 06:00N 18°17' W 149°50'0 0.0
2017-Nov-13 05:00N 18°17' W 149°50'1 0.6
2017-Nov-13 04:00N 18°17' W 149°50'0 0.0
2017-Nov-13 03:00N 18°17' W 149°50'1 0.6
2017-Nov-13 02:00N 18°17' W 149°49'3 2.6
2017-Nov-13 01:00N 18°18' W 149°47'3 2.6
2017-Nov-13 00:00N 18°17' W 149°49'3 0.6
2017-Nov-12 20:00N 18°18' W 149°47'1 1.1
2017-Nov-12 19:00N 18°18' W 149°46'1 0.6
2017-Nov-12 18:00N 18°18' W 149°46'1 1.1
2017-Nov-12 17:00N 18°18' W 149°45'1 0.4
2017-Nov-12 15:00N 18°19' W 149°44'2 2.3
2017-Nov-12 14:00N 18°19' W 149°42'2 2.3
2017-Nov-12 13:00N 18°19' W 149°44'2 2.3
2017-Nov-12 12:00N 18°19' W 149°42'0 0.0
2017-Nov-12 08:00N 18°19' W 149°42'1 0.6
2017-Nov-12 07:00N 18°19' W 149°41'0 0.0
2017-Nov-12 06:00N 18°19' W 149°41'1 0.6
2017-Nov-12 05:00N 18°19' W 149°41'1 0.8
2017-Nov-12 04:00N 18°19' W 149°40'1 0.6
2017-Nov-12 02:00N 18°19' W 149°39'2 1.7
2017-Nov-12 01:00N 18°19' W 149°37'2 1.7
2017-Nov-12 00:00N 18°19' W 149°39'2 0.4
2017-Nov-11 20:00N 18°19' W 149°37'2 1.7
2017-Nov-11 19:00N 18°19' W 149°35'1 0.6
2017-Nov-11 18:00N 18°19' W 149°36'1 1.1
2017-Nov-11 17:00N 18°19' W 149°35'1 1.1
2017-Nov-11 16:00N 18°19' W 149°34'0 0.0
2017-Nov-11 15:00N 18°19' W 149°34'1 1.1
2017-Nov-11 14:00N 18°19' W 149°32'0 0.0
2017-Nov-11 12:00N 18°19' W 149°32'0 0.0
2017-Nov-11 11:00N 18°19' W 149°32'0 0.0
2017-Nov-11 07:00N 18°19' W 149°32'1 0.6
2017-Nov-11 06:00N 18°20' W 149°32'0 0.0
2017-Nov-11 05:00N 18°20' W 149°32'1 0.8
2017-Nov-11 04:00N 18°19' W 149°32'1 1.3
2017-Nov-11 03:00N 18°20' W 149°31'2 0.9
2017-Nov-11 01:00N 18°19' W 149°29'0 0.0
2017-Nov-11 00:00N 18°19' W 149°29'0 0.0
2017-Nov-10 23:00N 18°19' W 149°29'1 0.3
2017-Nov-10 20:00N 18°19' W 149°28'1 0.6
2017-Nov-10 19:00N 18°19' W 149°28'1 1.3
2017-Nov-10 18:00N 18°19' W 149°27'1 0.6
2017-Nov-10 17:00N 18°19' W 149°28'0 0.0
2017-Nov-10 16:00N 18°19' W 149°28'1 0.3
2017-Nov-10 14:00N 18°19' W 149°27'1 0.6
2017-Nov-10 13:00N 18°19' W 149°26'1 1.3
2017-Nov-10 12:00N 18°18' W 149°25'0 0.0
2017-Nov-10 08:00N 18°18' W 149°25'1 0.8
2017-Nov-10 07:00N 18°19' W 149°25'0 0.0
2017-Nov-10 06:00N 18°19' W 149°25'1 0.6
2017-Nov-10 05:00N 18°19' W 149°25'0 0.0
2017-Nov-10 04:00N 18°19' W 149°25'1 0.8
2017-Nov-10 03:00N 18°19' W 149°24'0 0.0
2017-Nov-10 02:00N 18°19' W 149°24'0 0.0
2017-Nov-10 01:00N 18°19' W 149°24'0 0.0
2017-Nov-10 00:00N 18°19' W 149°24'0 0.0
2017-Nov-09 23:00N 18°19' W 149°24'2 0.6
2017-Nov-09 20:00N 18°19' W 149°22'0 0.0
2017-Nov-09 19:00N 18°19' W 149°22'0 0.0
2017-Nov-09 18:00N 18°19' W 149°22'0 0.0
2017-Nov-09 17:00N 18°19' W 149°22'1 1.1
2017-Nov-09 16:00N 18°19' W 149°21'1 0.6
2017-Nov-09 15:00N 18°19' W 149°22'0 0.0
2017-Nov-09 14:00N 18°19' W 149°22'1 1.1
2017-Nov-09 13:00N 18°19' W 149°20'1 0.6
2017-Nov-09 12:00N 18°19' W 149°20'0 0.0
2017-Nov-09 08:00N 18°19' W 149°20'0 0.0
2017-Nov-09 07:00N 18°19' W 149°20'1 0.8
2017-Nov-09 06:00N 18°19' W 149°20'1 0.6
2017-Nov-09 05:00N 18°19' W 149°20'0 0.0
2017-Nov-09 04:00N 18°19' W 149°20'1 0.3
2017-Nov-09 02:00N 18°19' W 149°19'0 0.0
2017-Nov-09 01:00N 18°19' W 149°19'1 0.6
2017-Nov-09 00:00N 18°19' W 149°19'0 0.0
2017-Nov-08 23:00N 18°19' W 149°19'1 0.4
2017-Nov-08 20:00N 18°19' W 149°18'0 0.0
2017-Nov-08 19:00N 18°19' W 149°18'1 0.8
2017-Nov-08 18:00N 18°19' W 149°17'1 0.8
2017-Nov-08 17:00N 18°19' W 149°18'1 0.8
2017-Nov-08 16:00N 18°19' W 149°17'0 0.0
2017-Nov-08 15:00N 18°19' W 149°17'0 0.0
2017-Nov-08 14:00N 18°19' W 149°17'1 1.3
2017-Nov-08 13:00N 18°18' W 149°16'  
Track history (hours):
 
Tides and Currents Weather Stations Pressure Air Temp Water Temp Dewpoint Dewpoint Depression Visibility Wind Speed Wind Dir Waves Ship Positions

Drifting buoy 46623

Last reported at 2017-Nov-18 13:00 UTC. Time now 2017-Nov-18 15:31 UTC.
Position N 18°08' W 150°28'.

Date/timePositionNaut miles runAvg speedWind from/ knotsBaromVisibWave heightAir tempDewpointWater temp
2017-Nov-18 13:00N 18°08' W 150°28'1 0.8
2017-Nov-18 12:00N 18°07' W 150°27'0 0.0
2017-Nov-18 08:00N 18°07' W 150°27'1 0.8
2017-Nov-18 07:00N 18°07' W 150°26'0 0.0
2017-Nov-18 06:00N 18°07' W 150°26'1 0.6
2017-Nov-18 05:00N 18°07' W 150°26'1 1.3
2017-Nov-18 04:00N 18°07' W 150°25'1 0.6
2017-Nov-18 03:00N 18°07' W 150°25'1 0.6
2017-Nov-18 02:00N 18°07' W 150°24'0 0.0
2017-Nov-18 01:00N 18°07' W 150°24'1 0.8
2017-Nov-18 00:00N 18°06' W 150°23'0 0.0
2017-Nov-17 23:00N 18°06' W 150°23'3 1.0
2017-Nov-17 20:00N 18°07' W 150°20'1 0.8
2017-Nov-17 19:00N 18°07' W 150°20'0 0.0
2017-Nov-17 18:00N 18°07' W 150°20'1 0.6
2017-Nov-17 17:00N 18°07' W 150°19'2 1.7
2017-Nov-17 16:00N 18°07' W 150°17'0 0.0
2017-Nov-17 15:00N 18°07' W 150°17'1 1.2
2017-Nov-17 14:00N 18°08' W 150°17'2 2.3
2017-Nov-17 13:00N 18°08' W 150°15'1 0.6
2017-Nov-17 12:00N 18°08' W 150°16'1 0.1
2017-Nov-17 08:00N 18°08' W 150°15'1 0.8
2017-Nov-17 07:00N 18°08' W 150°14'1 0.6
2017-Nov-17 06:00N 18°08' W 150°15'1 1.3
2017-Nov-17 05:00N 18°07' W 150°14'1 1.1
2017-Nov-17 04:00N 18°07' W 150°13'2 0.9
2017-Nov-17 02:00N 18°07' W 150°11'0 0.0
2017-Nov-17 01:00N 18°07' W 150°11'2 1.8
2017-Nov-17 00:00N 18°08' W 150°09'0 0.0
2017-Nov-16 20:00N 18°08' W 150°09'1 1.1
2017-Nov-16 19:00N 18°08' W 150°08'0 0.0
2017-Nov-16 18:00N 18°08' W 150°08'1 0.8
2017-Nov-16 17:00N 18°07' W 150°08'3 1.3
2017-Nov-16 15:00N 18°08' W 150°06'1 0.8
2017-Nov-16 14:00N 18°09' W 150°05'2 1.7
2017-Nov-16 13:00N 18°09' W 150°04'0 0.0
2017-Nov-16 08:00N 18°09' W 150°04'1 0.6
2017-Nov-16 07:00N 18°09' W 150°03'1 0.6
2017-Nov-16 06:00N 18°09' W 150°02'0 0.0
2017-Nov-16 05:00N 18°09' W 150°02'1 0.8
2017-Nov-16 04:00N 18°10' W 150°02'1 0.6
2017-Nov-16 03:00N 18°10' W 150°01'1 1.3
2017-Nov-16 02:00N 18°10' W 150°00'0 0.0
2017-Nov-16 00:00N 18°10' W 150°00'2 0.4
2017-Nov-15 18:00N 18°11' W 149°58'1 0.6
2017-Nov-15 17:00N 18°11' W 149°58'0 0.0
2017-Nov-15 16:00N 18°11' W 149°58'1 1.2
2017-Nov-15 15:00N 18°13' W 149°58'0 0.0
2017-Nov-15 13:00N 18°13' W 149°58'1 0.2
2017-Nov-15 08:00N 18°13' W 149°57'1 0.6
2017-Nov-15 07:00N 18°13' W 149°57'1 0.6
2017-Nov-15 06:00N 18°13' W 149°57'1 0.6
2017-Nov-15 05:00N 18°13' W 149°57'0 0.0
2017-Nov-15 04:00N 18°13' W 149°57'1 1.3
2017-Nov-15 03:00N 18°13' W 149°56'0 0.0
2017-Nov-15 02:00N 18°13' W 149°56'0 0.0
2017-Nov-15 01:00N 18°13' W 149°56'1 0.6
2017-Nov-15 00:00N 18°14' W 149°56'0 0.0
2017-Nov-14 20:00N 18°14' W 149°56'1 0.6
2017-Nov-14 19:00N 18°14' W 149°56'1 0.8
2017-Nov-14 18:00N 18°14' W 149°55'1 0.3
2017-Nov-14 16:00N 18°14' W 149°55'0 0.0
2017-Nov-14 15:00N 18°14' W 149°55'1 1.1
2017-Nov-14 14:00N 18°14' W 149°56'2 1.7
2017-Nov-14 13:00N 18°14' W 149°54'0 0.0
2017-Nov-14 08:00N 18°14' W 149°54'1 1.1
2017-Nov-14 07:00N 18°14' W 149°53'0 0.0
2017-Nov-14 06:00N 18°14' W 149°53'1 0.8
2017-Nov-14 05:00N 18°14' W 149°53'1 1.1
2017-Nov-14 04:00N 18°14' W 149°52'1 0.8
2017-Nov-14 03:00N 18°15' W 149°52'0 0.0
2017-Nov-14 02:00N 18°15' W 149°52'2 2.1
2017-Nov-14 01:00N 18°17' W 149°50'2 2.1
2017-Nov-14 00:00N 18°15' W 149°52'2 0.5
2017-Nov-13 20:00N 18°17' W 149°50'1 0.6
2017-Nov-13 19:00N 18°17' W 149°50'0 0.0
2017-Nov-13 18:00N 18°17' W 149°50'0 0.0
2017-Nov-13 17:00N 18°17' W 149°50'1 0.6
2017-Nov-13 16:00N 18°17' W 149°51'1 0.6
2017-Nov-13 15:00N 18°18' W 149°51'1 0.6
2017-Nov-13 14:00N 18°18' W 149°52'1 0.8
2017-Nov-13 13:00N 18°17' W 149°51'0 0.0
2017-Nov-13 08:00N 18°17' W 149°51'0 0.0
2017-Nov-13 07:00N 18°17' W 149°51'1 0.8
2017-Nov-13 06:00N 18°17' W 149°50'0 0.0
2017-Nov-13 05:00N 18°17' W 149°50'1 0.6
2017-Nov-13 04:00N 18°17' W 149°50'0 0.0
2017-Nov-13 03:00N 18°17' W 149°50'1 0.6
2017-Nov-13 02:00N 18°17' W 149°49'3 2.6
2017-Nov-13 01:00N 18°18' W 149°47'3 2.6
2017-Nov-13 00:00N 18°17' W 149°49'3 0.6
2017-Nov-12 20:00N 18°18' W 149°47'1 1.1
2017-Nov-12 19:00N 18°18' W 149°46'1 0.6
2017-Nov-12 18:00N 18°18' W 149°46'1 1.1
2017-Nov-12 17:00N 18°18' W 149°45'1 0.4
2017-Nov-12 15:00N 18°19' W 149°44'2 2.3
2017-Nov-12 14:00N 18°19' W 149°42'2 2.3
2017-Nov-12 13:00N 18°19' W 149°44'2 2.3
2017-Nov-12 12:00N 18°19' W 149°42'0 0.0
2017-Nov-12 08:00N 18°19' W 149°42'1 0.6
2017-Nov-12 07:00N 18°19' W 149°41'0 0.0
2017-Nov-12 06:00N 18°19' W 149°41'1 0.6
2017-Nov-12 05:00N 18°19' W 149°41'1 0.8
2017-Nov-12 04:00N 18°19' W 149°40'1 0.6
2017-Nov-12 02:00N 18°19' W 149°39'2 1.7
2017-Nov-12 01:00N 18°19' W 149°37'2 1.7
2017-Nov-12 00:00N 18°19' W 149°39'2 0.4
2017-Nov-11 20:00N 18°19' W 149°37'2 1.7
2017-Nov-11 19:00N 18°19' W 149°35'1 0.6
2017-Nov-11 18:00N 18°19' W 149°36'1 1.1
2017-Nov-11 17:00N 18°19' W 149°35'1 1.1
2017-Nov-11 16:00N 18°19' W 149°34'0 0.0
2017-Nov-11 15:00N 18°19' W 149°34'1 1.1
2017-Nov-11 14:00N 18°19' W 149°32'0 0.0
2017-Nov-11 12:00N 18°19' W 149°32'0 0.0
2017-Nov-11 11:00N 18°19' W 149°32'0 0.0
2017-Nov-11 07:00N 18°19' W 149°32'1 0.6
2017-Nov-11 06:00N 18°20' W 149°32'0 0.0
2017-Nov-11 05:00N 18°20' W 149°32'1 0.8
2017-Nov-11 04:00N 18°19' W 149°32'1 1.3
2017-Nov-11 03:00N 18°20' W 149°31'2 0.9
2017-Nov-11 01:00N 18°19' W 149°29'0 0.0
2017-Nov-11 00:00N 18°19' W 149°29'0 0.0
2017-Nov-10 23:00N 18°19' W 149°29'1 0.3
2017-Nov-10 20:00N 18°19' W 149°28'1 0.6
2017-Nov-10 19:00N 18°19' W 149°28'1 1.3
2017-Nov-10 18:00N 18°19' W 149°27'1 0.6
2017-Nov-10 17:00N 18°19' W 149°28'0 0.0
2017-Nov-10 16:00N 18°19' W 149°28'1 0.3
2017-Nov-10 14:00N 18°19' W 149°27'1 0.6
2017-Nov-10 13:00N 18°19' W 149°26'1 1.3
2017-Nov-10 12:00N 18°18' W 149°25'0 0.0
2017-Nov-10 08:00N 18°18' W 149°25'1 0.8
2017-Nov-10 07:00N 18°19' W 149°25'0 0.0
2017-Nov-10 06:00N 18°19' W 149°25'1 0.6
2017-Nov-10 05:00N 18°19' W 149°25'0 0.0
2017-Nov-10 04:00N 18°19' W 149°25'1 0.8
2017-Nov-10 03:00N 18°19' W 149°24'0 0.0
2017-Nov-10 02:00N 18°19' W 149°24'0 0.0
2017-Nov-10 01:00N 18°19' W 149°24'0 0.0
2017-Nov-10 00:00N 18°19' W 149°24'0 0.0
2017-Nov-09 23:00N 18°19' W 149°24'2 0.6
2017-Nov-09 20:00N 18°19' W 149°22'0 0.0
2017-Nov-09 19:00N 18°19' W 149°22'0 0.0
2017-Nov-09 18:00N 18°19' W 149°22'0 0.0
2017-Nov-09 17:00N 18°19' W 149°22'1 1.1
2017-Nov-09 16:00N 18°19' W 149°21'1 0.6
2017-Nov-09 15:00N 18°19' W 149°22'0 0.0
2017-Nov-09 14:00N 18°19' W 149°22'1 1.1
2017-Nov-09 13:00N 18°19' W 149°20'1 0.6
2017-Nov-09 12:00N 18°19' W 149°20'0 0.0
2017-Nov-09 08:00N 18°19' W 149°20'0 0.0
2017-Nov-09 07:00N 18°19' W 149°20'1 0.8
2017-Nov-09 06:00N 18°19' W 149°20'1 0.6
2017-Nov-09 05:00N 18°19' W 149°20'0 0.0
2017-Nov-09 04:00N 18°19' W 149°20'1 0.3
2017-Nov-09 02:00N 18°19' W 149°19'0 0.0
2017-Nov-09 01:00N 18°19' W 149°19'1 0.6
2017-Nov-09 00:00N 18°19' W 149°19'0 0.0
2017-Nov-08 23:00N 18°19' W 149°19'1 0.4
2017-Nov-08 20:00N 18°19' W 149°18'0 0.0
2017-Nov-08 19:00N 18°19' W 149°18'1 0.8
2017-Nov-08 18:00N 18°19' W 149°17'1 0.8
2017-Nov-08 17:00N 18°19' W 149°18'1 0.8
2017-Nov-08 16:00N 18°19' W 149°17'0 0.0
2017-Nov-08 15:00N 18°19' W 149°17'0 0.0
2017-Nov-08 14:00N 18°19' W 149°17'1 1.3
2017-Nov-08 13:00N 18°18' W 149°16'  

Dump ship's entire track history